Time;durP1;ratioP1;P1;durP2;ratioP2;P2;SDS_P1;SDS_P2;PMS_P1;PMS_P2;Temp;Humidity;BMP_temperature;BMP_pressure;BME280_temperature;BME280_humidity;BME280_pressure;Samples;Min_cycle;Max_cycle;Signal;HPM_P1;HPM_P2
2023/04/13 00:00:56;;;;;;;17.97;13.33;;;4.50;92.80;;;;;;4917587;29;20180;-90
2023/04/13 00:03:22;;;;;;;15.30;13.87;;;4.30;92.70;;;;;;4917264;29;20691;-89
2023/04/13 00:05:51;;;;;;;15.20;13.90;;;4.40;92.80;;;;;;4917642;29;20183;-92
2023/04/13 00:08:17;;;;;;;16.77;15.10;;;4.40;92.80;;;;;;4917195;29;20176;-92
2023/04/13 00:10:44;;;;;;;19.17;15.87;;;4.50;92.90;;;;;;4917581;29;20666;-92
2023/04/13 00:13:10;;;;;;;17.37;15.60;;;4.50;92.80;;;;;;4918073;29;20291;-92
2023/04/13 00:15:40;;;;;;;16.93;15.43;;;4.40;92.70;;;;;;4919273;29;20250;-92
2023/04/13 00:18:07;;;;;;;17.03;15.37;;;4.40;92.80;;;;;;4918760;29;20164;-92
2023/04/13 00:20:33;;;;;;;16.97;15.37;;;4.40;92.70;;;;;;4918173;29;20200;-91
2023/04/13 00:22:59;;;;;;;17.80;16.00;;;4.40;92.80;;;;;;4917564;29;20244;-91
2023/04/13 00:25:25;;;;;;;18.57;16.90;;;4.50;92.70;;;;;;4918512;29;20172;-91
2023/04/13 00:27:53;;;;;;;17.90;16.20;;;4.30;92.60;;;;;;4919307;29;20183;-91
2023/04/13 00:30:20;;;;;;;18.83;16.93;;;4.30;92.50;;;;;;4919948;29;20162;-91
2023/04/13 00:32:46;;;;;;;18.40;16.67;;;4.30;92.60;;;;;;4919651;29;20195;-90
2023/04/13 00:35:17;;;;;;;19.47;17.63;;;4.20;92.50;;;;;;4919039;29;20171;-90
2023/04/13 00:37:43;;;;;;;21.53;17.57;;;4.20;92.60;;;;;;4916590;29;20180;-89
2023/04/13 00:40:10;;;;;;;20.37;18.10;;;4.30;92.60;;;;;;4915943;29;20208;-90
2023/04/13 00:42:35;;;;;;;19.17;17.10;;;4.20;92.60;;;;;;4917414;29;20218;-89
2023/04/13 00:45:01;;;;;;;20.10;17.33;;;4.20;92.60;;;;;;4915749;29;20183;-89
2023/04/13 00:47:31;;;;;;;21.53;18.73;;;4.20;92.70;;;;;;4915619;29;20221;-89
2023/04/13 00:49:59;;;;;;;20.07;18.00;;;4.20;92.60;;;;;;4915601;29;20187;-89
2023/04/13 00:52:24;;;;;;;20.90;19.07;;;4.10;92.60;;;;;;4915774;29;20250;-90
2023/04/13 00:54:51;;;;;;;22.77;20.47;;;4.10;92.70;;;;;;4918354;29;20187;-89
2023/04/13 00:57:18;;;;;;;22.97;20.87;;;4.10;92.70;;;;;;4920326;29;20187;-90
2023/04/13 00:59:44;;;;;;;22.33;20.03;;;4.20;92.80;;;;;;4919628;29;20191;-89
2023/04/13 01:02:10;;;;;;;24.47;21.87;;;4.20;92.70;;;;;;4919020;29;20224;-89
2023/04/13 01:04:36;;;;;;;22.90;20.77;;;4.20;92.70;;;;;;4919128;29;20186;-89
2023/04/13 01:07:02;;;;;;;22.30;20.20;;;4.20;92.70;;;;;;4919152;29;20185;-90
2023/04/13 01:09:38;;;;;;;26.40;20.80;;;4.10;92.80;;;;;;4919145;29;20184;-89
2023/04/13 01:12:23;;;;;;;24.43;21.87;;;4.10;92.80;;;;;;4920172;29;20220;-90
2023/04/13 01:14:57;;;;;;;22.10;19.90;;;4.10;92.80;;;;;;4920249;29;20250;-89
2023/04/13 01:17:29;;;;;;;26.50;20.87;;;4.00;92.80;;;;;;4918949;29;20189;-89
2023/04/13 01:20:09;;;;;;;22.43;20.17;;;4.00;92.70;;;;;;4918795;29;20211;-89
2023/04/13 01:22:37;;;;;;;23.50;21.23;;;3.90;92.70;;;;;;4918716;29;20228;-89
2023/04/13 01:25:41;;;;;;;22.43;20.53;;;3.80;92.70;;;;;;4919521;29;20560;-90
2023/04/13 01:28:17;;;;;;;21.87;19.70;;;3.80;92.80;;;;;;4883472;29;20184;-89
2023/04/13 01:30:44;;;;;;;21.50;19.33;;;3.70;92.70;;;;;;4883625;29;20246;-90
2023/04/13 01:33:11;;;;;;;21.97;20.03;;;3.60;92.70;;;;;;4901149;29;20211;-89
2023/04/13 01:35:38;;;;;;;26.33;19.97;;;3.50;92.70;;;;;;4918558;29;20676;-89
2023/04/13 01:38:05;;;;;;;26.83;22.23;;;3.50;92.70;;;;;;4920015;29;20623;-89
2023/04/13 01:40:33;;;;;;;26.53;21.60;;;3.50;92.70;;;;;;4918649;29;20198;-89
2023/04/13 01:42:59;;;;;;;27.70;22.37;;;3.40;92.70;;;;;;4918269;29;20256;-90
2023/04/13 01:45:26;;;;;;;27.00;22.10;;;3.50;92.80;;;;;;4919605;29;20214;-89
2023/04/13 01:48:10;;;;;;;28.33;22.93;;;3.40;92.80;;;;;;4918705;29;20198;-89
2023/04/13 01:50:39;;;;;;;24.93;22.40;;;3.40;92.80;;;;;;4918431;29;20550;-89
2023/04/13 01:53:14;;;;;;;26.03;23.33;;;3.40;92.90;;;;;;4918291;29;20205;-89
2023/04/13 01:55:41;;;;;;;29.83;25.93;;;3.40;92.90;;;;;;4918401;29;20175;-89
2023/04/13 01:58:09;;;;;;;29.53;25.40;;;3.50;93.00;;;;;;4918171;29;20236;-88
2023/04/13 02:00:35;;;;;;;28.13;25.30;;;3.50;93.00;;;;;;4918485;29;20547;-89
2023/04/13 02:03:06;;;;;;;29.20;26.37;;;3.40;93.00;;;;;;4918053;29;20209;-90
2023/04/13 02:05:34;;;;;;;29.10;24.60;;;3.40;93.00;;;;;;4918024;29;20182;-89
2023/04/13 02:07:59;;;;;;;31.10;26.03;;;3.40;93.20;;;;;;4918435;29;20174;-89
2023/04/13 02:10:25;;;;;;;34.43;26.67;;;3.40;93.20;;;;;;4918188;29;20183;-90
2023/04/13 02:12:53;;;;;;;29.37;25.43;;;3.30;93.10;;;;;;4917937;29;20198;-89
2023/04/13 02:15:19;;;;;;;28.80;25.73;;;3.40;93.20;;;;;;4917940;29;20180;-89
2023/04/13 02:17:44;;;;;;;30.03;26.87;;;3.40;93.20;;;;;;4918173;29;20179;-90
2023/04/13 02:20:11;;;;;;;29.33;26.53;;;3.40;93.30;;;;;;4917811;29;20300;-89
2023/04/13 02:22:38;;;;;;;28.77;25.77;;;3.50;93.40;;;;;;4917461;29;20255;-89
2023/04/13 02:25:07;;;;;;;29.90;26.27;;;3.50;93.50;;;;;;4918065;29;20257;-90
2023/04/13 02:27:37;;;;;;;28.90;25.93;;;3.60;93.50;;;;;;4917584;29;20188;-90
2023/04/13 02:30:08;;;;;;;29.17;25.63;;;3.60;93.50;;;;;;4917669;29;20173;-89
2023/04/13 02:32:36;;;;;;;28.93;25.87;;;3.60;93.50;;;;;;4917492;29;20213;-90
2023/04/13 02:35:02;;;;;;;29.03;26.23;;;3.50;93.50;;;;;;4917449;29;20184;-89
2023/04/13 02:37:30;;;;;;;30.60;27.60;;;3.50;93.60;;;;;;4917474;29;20186;-89
2023/04/13 02:39:55;;;;;;;30.17;26.90;;;3.50;93.60;;;;;;4917435;29;20657;-89
2023/04/13 02:42:21;;;;;;;28.73;23.77;;;3.60;93.60;;;;;;4917295;29;20218;-90
2023/04/13 02:44:48;;;;;;;34.07;28.13;;;3.60;93.70;;;;;;4917409;29;20197;-90
2023/04/13 02:47:14;;;;;;;29.93;26.73;;;3.60;93.70;;;;;;4917354;29;20206;-89
2023/04/13 02:49:41;;;;;;;29.87;27.03;;;3.60;93.60;;;;;;4917319;29;20181;-89
2023/04/13 02:52:07;;;;;;;30.33;26.97;;;3.50;93.60;;;;;;4917117;29;20293;-89
2023/04/13 02:54:33;;;;;;;33.67;28.63;;;3.50;93.70;;;;;;4917230;29;20217;-89
2023/04/13 02:57:00;;;;;;;31.57;28.27;;;3.40;93.60;;;;;;4918281;29;20741;-90
2023/04/13 02:59:27;;;;;;;32.30;28.37;;;3.40;93.70;;;;;;4917607;29;20187;-89
2023/04/13 03:01:57;;;;;;;33.90;30.23;;;3.60;93.80;;;;;;4916922;29;20209;-89
2023/04/13 03:04:24;;;;;;;31.63;28.43;;;3.60;93.80;;;;;;4917070;29;20170;-89
2023/04/13 03:06:50;;;;;;;33.40;28.43;;;3.60;93.80;;;;;;4916954;29;20197;-89
2023/04/13 03:09:16;;;;;;;32.70;28.63;;;3.70;93.90;;;;;;4917262;29;20175;-89
2023/04/13 03:11:42;;;;;;;35.67;29.77;;;3.70;93.90;;;;;;4917611;29;20259;-89
2023/04/13 03:14:11;;;;;;;36.60;28.43;;;3.70;93.90;;;;;;4917745;29;20215;-89
2023/04/13 03:16:37;;;;;;;32.03;28.10;;;3.80;93.90;;;;;;4916056;29;20668;-90
2023/04/13 03:19:04;;;;;;;33.37;29.10;;;3.70;93.80;;;;;;4916716;29;20186;-89
2023/04/13 03:21:30;;;;;;;35.43;28.13;;;3.70;93.80;;;;;;4916701;29;20178;-89
2023/04/13 03:23:56;;;;;;;34.13;30.13;;;3.70;93.90;;;;;;4916649;29;20231;-89
2023/04/13 03:26:24;;;;;;;37.13;29.43;;;3.70;93.90;;;;;;4916606;29;20260;-89
2023/04/13 03:28:49;;;;;;;33.23;29.67;;;3.70;93.80;;;;;;4916528;29;20274;-90
2023/04/13 03:31:16;;;;;;;34.03;29.13;;;3.70;93.80;;;;;;4916459;29;20206;-90
2023/04/13 03:33:41;;;;;;;34.37;28.37;;;3.60;93.80;;;;;;4916419;29;20248;-90
2023/04/13 03:36:08;;;;;;;32.17;27.73;;;3.70;93.90;;;;;;4916441;29;20185;-90
2023/04/13 03:38:33;;;;;;;31.30;27.93;;;3.70;93.90;;;;;;4917543;29;20182;-90
2023/04/13 03:40:59;;;;;;;35.57;28.67;;;3.70;93.90;;;;;;4916424;29;20188;-90
2023/04/13 03:43:25;;;;;;;33.20;29.70;;;3.80;93.90;;;;;;4917430;29;20703;-90
2023/04/13 03:45:51;;;;;;;36.63;29.40;;;3.80;93.90;;;;;;4916391;29;20186;-89
2023/04/13 03:48:16;;;;;;;30.50;27.40;;;3.90;94.00;;;;;;4917465;29;20195;-89
2023/04/13 03:50:42;;;;;;;34.00;27.93;;;3.90;93.90;;;;;;4916195;29;20213;-89
2023/04/13 03:53:07;;;;;;;32.00;28.73;;;4.00;93.90;;;;;;4916780;29;20206;-89
2023/04/13 03:55:33;;;;;;;31.33;28.00;;;4.00;93.90;;;;;;4916560;29;20663;-90
2023/04/13 03:58:00;;;;;;;34.00;28.97;;;4.00;93.90;;;;;;4916213;29;20182;-89
2023/04/13 04:00:26;;;;;;;31.43;28.03;;;4.10;93.90;;;;;;4916114;29;20191;-89
2023/04/13 04:02:51;;;;;;;31.50;28.07;;;4.00;93.90;;;;;;4916202;29;20221;-89
2023/04/13 04:05:17;;;;;;;28.97;26.07;;;4.00;93.90;;;;;;4917234;29;20179;-89
2023/04/13 04:07:42;;;;;;;32.33;28.83;;;4.00;93.80;;;;;;4915927;29;20188;-89
2023/04/13 04:10:09;;;;;;;31.93;25.80;;;4.00;93.80;;;;;;4916396;29;20643;-89
2023/04/13 04:12:35;;;;;;;31.80;27.03;;;4.10;93.80;;;;;;4916072;29;20233;-90
2023/04/13 04:15:01;;;;;;;29.20;26.07;;;4.10;93.70;;;;;;4916013;29;20611;-89
2023/04/13 04:17:26;;;;;;;34.47;26.77;;;4.10;93.70;;;;;;4917110;29;20188;-90
2023/04/13 04:19:52;;;;;;;29.40;26.20;;;4.00;93.60;;;;;;4915814;29;20196;-89
2023/04/13 04:22:17;;;;;;;31.93;25.50;;;4.10;93.70;;;;;;4915614;29;20228;-90
2023/04/13 04:24:43;;;;;;;29.57;25.40;;;4.20;93.60;;;;;;4915956;29;20274;-89
2023/04/13 04:27:08;;;;;;;29.13;25.20;;;4.20;93.60;;;;;;4916314;29;20186;-89
2023/04/13 04:29:34;;;;;;;26.37;23.53;;;4.10;93.50;;;;;;4919708;29;20182;-89
2023/04/13 04:32:01;;;;;;;33.20;27.47;;;4.10;93.50;;;;;;4919653;29;20205;-90
2023/04/13 04:34:27;;;;;;;31.27;26.97;;;4.20;93.50;;;;;;4920842;29;20194;-89
2023/04/13 04:36:54;;;;;;;31.30;28.10;;;4.30;93.60;;;;;;4920373;29;20190;-89
2023/04/13 04:39:22;;;;;;;30.60;27.10;;;4.30;93.50;;;;;;4919860;29;20210;-88
2023/04/13 04:41:54;;;;;;;34.83;27.87;;;4.40;93.50;;;;;;4920834;29;20211;-88
2023/04/13 04:44:23;;;;;;;32.87;27.50;;;4.60;93.50;;;;;;4919562;29;20643;-89
2023/04/13 04:46:53;;;;;;;35.30;29.57;;;4.70;93.40;;;;;;4919562;29;20698;-88
2023/04/13 04:49:20;;;;;;;36.63;27.57;;;4.80;93.20;;;;;;4920653;29;20184;-88
2023/04/13 04:51:47;;;;;;;30.57;27.33;;;5.00;93.10;;;;;;4919362;29;20674;-88
2023/04/13 04:54:15;;;;;;;30.57;26.40;;;5.10;93.00;;;;;;4919375;29;20180;-88
2023/04/13 04:56:41;;;;;;;34.13;26.67;;;5.30;92.90;;;;;;4919417;29;20187;-88
2023/04/13 04:59:07;;;;;;;30.57;27.33;;;5.30;92.60;;;;;;4920571;29;20180;-88
2023/04/13 05:01:33;;;;;;;27.87;25.00;;;5.40;92.40;;;;;;4919338;29;20243;-88
2023/04/13 05:04:00;;;;;;;31.80;26.07;;;5.50;92.30;;;;;;4919208;29;20280;-88
2023/04/13 05:06:26;;;;;;;28.10;25.13;;;5.60;92.20;;;;;;4919257;29;20663;-88
2023/04/13 05:08:52;;;;;;;32.03;23.23;;;5.80;92.10;;;;;;4919236;29;20194;-88
2023/04/13 05:11:17;;;;;;;27.80;25.17;;;5.60;91.80;;;;;;4919111;29;20271;-87
2023/04/13 05:13:43;;;;;;;25.77;23.03;;;5.60;91.70;;;;;;4920183;29;20231;-88
2023/04/13 05:16:09;;;;;;;28.30;24.67;;;5.50;91.40;;;;;;4918935;29;20189;-89
2023/04/13 05:18:46;;;;;;;28.30;25.20;;;5.50;91.50;;;;;;4920091;29;20180;-89
2023/04/13 05:21:12;;;;;;;31.07;24.97;;;5.60;91.50;;;;;;4918744;29;20738;-89
2023/04/13 05:23:38;;;;;;;25.57;22.40;;;5.60;91.40;;;;;;4918879;29;20216;-89
2023/04/13 05:26:04;;;;;;;24.77;22.27;;;5.50;91.40;;;;;;4918812;29;20291;-89
2023/04/13 05:28:30;;;;;;;26.57;23.10;;;5.50;91.40;;;;;;4920007;29;20179;-89
2023/04/13 05:31:01;;;;;;;23.87;21.50;;;5.40;91.40;;;;;;4920050;29;20175;-89
2023/04/13 05:33:26;;;;;;;27.60;23.37;;;5.40;91.40;;;;;;4918517;29;20287;-88
2023/04/13 05:35:52;;;;;;;25.23;22.60;;;5.40;91.50;;;;;;4919853;29;20658;-89
2023/04/13 05:38:17;;;;;;;24.17;21.53;;;5.40;91.50;;;;;;4918573;29;20635;-89
2023/04/13 05:40:43;;;;;;;27.10;23.93;;;5.40;91.70;;;;;;4917919;29;20597;-88
2023/04/13 05:43:10;;;;;;;30.10;23.87;;;5.40;91.70;;;;;;4919584;29;20214;-89
2023/04/13 05:45:35;;;;;;;27.57;22.90;;;5.50;91.80;;;;;;4919484;29;20263;-88
2023/04/13 05:48:01;;;;;;;26.77;23.83;;;5.50;91.80;;;;;;4920145;29;20611;-89
2023/04/13 05:50:27;;;;;;;25.30;22.27;;;5.50;91.90;;;;;;4918379;29;20610;-89
2023/04/13 05:52:52;;;;;;;25.97;23.43;;;5.50;92.00;;;;;;4918275;29;20208;-89
2023/04/13 05:55:19;;;;;;;28.87;23.97;;;5.50;92.10;;;;;;4918269;29;20219;-89
2023/04/13 05:57:44;;;;;;;24.43;22.10;;;5.50;92.20;;;;;;4919390;29;20188;-89
2023/04/13 06:00:10;;;;;;;27.00;24.20;;;5.50;92.20;;;;;;4918419;29;20203;-87
2023/04/13 06:02:38;;;;;;;24.57;22.03;;;5.50;92.30;;;;;;4918295;29;20689;-86
2023/04/13 06:05:06;;;;;;;26.10;23.47;;;5.50;92.40;;;;;;4918341;29;20184;-86
2023/04/13 06:07:33;;;;;;;24.90;22.50;;;5.50;92.50;;;;;;4918673;29;20243;-86
2023/04/13 06:09:59;;;;;;;27.63;22.27;;;5.60;92.50;;;;;;4918427;29;20191;-86
2023/04/13 06:12:25;;;;;;;25.50;21.37;;;5.70;92.50;;;;;;4918262;29;20281;-87
2023/04/13 06:14:51;;;;;;;28.20;24.20;;;5.70;92.50;;;;;;4919407;29;20680;-87
2023/04/13 06:17:17;;;;;;;26.50;22.77;;;5.80;92.50;;;;;;4918086;29;20180;-86
2023/04/13 06:19:42;;;;;;;26.03;23.27;;;5.80;92.40;;;;;;4918083;29;20668;-86
2023/04/13 06:22:08;;;;;;;24.10;21.93;;;5.80;92.50;;;;;;4918134;29;20232;-86
2023/04/13 06:24:33;;;;;;;24.57;22.10;;;5.80;92.40;;;;;;4917889;29;20193;-89
2023/04/13 06:26:59;;;;;;;28.20;22.80;;;5.80;92.40;;;;;;4919078;29;20184;-89
2023/04/13 06:29:25;;;;;;;23.50;21.17;;;5.90;92.40;;;;;;4917559;29;20593;-89
2023/04/13 06:31:50;;;;;;;24.40;22.20;;;5.90;92.40;;;;;;4917874;29;20271;-89
2023/04/13 06:34:16;;;;;;;23.03;20.83;;;6.00;92.40;;;;;;4917938;29;20267;-88
2023/04/13 06:36:42;;;;;;;21.30;19.30;;;6.00;92.10;;;;;;4917565;29;20561;-89
2023/04/13 06:39:08;;;;;;;22.73;20.50;;;6.00;91.90;;;;;;4917480;29;20230;-88
2023/04/13 06:41:33;;;;;;;22.50;20.40;;;6.10;91.90;;;;;;4918029;29;20365;-88
2023/04/13 06:43:59;;;;;;;22.47;20.37;;;6.20;91.80;;;;;;4918987;29;20753;-87
2023/04/13 06:46:26;;;;;;;22.87;20.57;;;6.20;91.70;;;;;;4919049;29;20189;-87
2023/04/13 06:48:51;;;;;;;22.83;20.40;;;6.20;91.70;;;;;;4917372;29;20181;-89
2023/04/13 06:51:17;;;;;;;22.13;20.03;;;6.30;91.70;;;;;;4917474;29;20227;-89
2023/04/13 06:53:43;;;;;;;22.50;20.60;;;6.30;91.70;;;;;;4917251;29;20193;-88
2023/04/13 06:56:08;;;;;;;22.73;20.73;;;6.30;91.80;;;;;;4917191;29;20191;-88
2023/04/13 06:58:34;;;;;;;19.93;18.13;;;6.40;91.80;;;;;;4917388;29;20181;-88
2023/04/13 07:00:59;;;;;;;21.60;19.77;;;6.40;91.40;;;;;;4917959;29;20193;-88
2023/04/13 07:03:25;;;;;;;19.83;18.13;;;6.50;91.40;;;;;;4916894;29;20683;-88
2023/04/13 07:05:50;;;;;;;21.10;19.20;;;6.50;91.50;;;;;;4917017;29;20690;-88
2023/04/13 07:08:18;;;;;;;20.10;18.07;;;6.50;91.40;;;;;;4917047;29;20187;-88
2023/04/13 07:10:44;;;;;;;20.63;18.77;;;6.60;91.20;;;;;;4917360;29;20188;-87
2023/04/13 07:13:10;;;;;;;21.03;19.13;;;6.60;91.20;;;;;;4917985;29;20291;-87
2023/04/13 07:15:36;;;;;;;20.30;18.33;;;6.70;91.40;;;;;;4918414;29;20203;-87
2023/04/13 07:18:02;;;;;;;18.93;17.43;;;6.70;91.20;;;;;;4918380;29;20204;-87
2023/04/13 07:20:28;;;;;;;20.50;17.17;;;6.70;91.10;;;;;;4917022;29;20208;-87
2023/04/13 07:22:53;;;;;;;16.80;15.33;;;6.80;91.00;;;;;;4917687;29;20212;-87
2023/04/13 07:25:20;;;;;;;18.47;16.77;;;6.80;90.60;;;;;;4916862;29;20186;-90
2023/04/13 07:27:46;;;;;;;17.40;15.93;;;6.80;90.60;;;;;;4918051;29;20644;-89
2023/04/13 07:30:12;;;;;;;18.20;16.83;;;6.90;90.70;;;;;;4917354;29;20177;-90
2023/04/13 07:32:38;;;;;;;17.10;15.33;;;7.00;90.60;;;;;;4917969;29;20214;-88
2023/04/13 07:35:04;;;;;;;17.60;16.30;;;7.00;90.40;;;;;;4917705;29;20180;-89
2023/04/13 07:37:29;;;;;;;17.70;15.93;;;7.10;90.40;;;;;;4916526;29;20263;-89
2023/04/13 07:39:55;;;;;;;14.83;13.83;;;7.20;90.10;;;;;;4917642;29;20180;-88
2023/04/13 07:42:21;;;;;;;16.60;15.10;;;7.20;89.40;;;;;;4917720;29;20684;-88
2023/04/13 07:44:46;;;;;;;15.80;14.53;;;7.30;89.80;;;;;;4916742;29;20222;-89
2023/04/13 07:47:12;;;;;;;13.97;12.97;;;7.20;89.60;;;;;;4916284;29;20224;-88
2023/04/13 07:49:38;;;;;;;16.33;14.83;;;7.20;89.50;;;;;;4917458;29;20173;-89
2023/04/13 07:52:04;;;;;;;12.43;11.60;;;7.30;89.40;;;;;;4917696;29;20197;-87
2023/04/13 07:54:29;;;;;;;14.87;13.47;;;7.30;89.40;;;;;;4916235;29;20271;-89
2023/04/13 07:56:55;;;;;;;12.87;11.87;;;7.50;89.50;;;;;;4916241;29;20529;-88
2023/04/13 07:59:21;;;;;;;12.67;11.87;;;7.50;88.80;;;;;;4916064;29;20538;-88
2023/04/13 08:01:46;;;;;;;13.13;12.13;;;7.50;88.60;;;;;;4916800;29;20550;-89
2023/04/13 08:04:12;;;;;;;11.77;11.07;;;7.50;88.20;;;;;;4915996;29;20176;-87
2023/04/13 08:06:37;;;;;;;11.83;10.93;;;7.60;87.90;;;;;;4917552;29;20707;-90
2023/04/13 08:09:03;;;;;;;10.90;10.13;;;7.70;87.90;;;;;;4926463;29;20200;-92
2023/04/13 08:11:29;;;;;;;11.57;10.77;;;7.80;87.50;;;;;;4926162;29;20282;-91
2023/04/13 08:13:55;;;;;;;11.17;10.50;;;7.80;87.30;;;;;;4924123;29;20216;-91
2023/04/13 08:16:20;;;;;;;10.73;10.13;;;7.80;86.90;;;;;;4927044;29;20184;-92
2023/04/13 08:18:46;;;;;;;10.37;9.77;;;7.90;87.50;;;;;;4923061;29;20195;-92
2023/04/13 08:21:13;;;;;;;12.30;11.37;;;8.20;87.50;;;;;;4924616;29;20196;-91
2023/04/13 08:23:40;;;;;;;11.67;10.50;;;8.30;86.60;;;;;;4929564;29;20227;-92
2023/04/13 08:26:06;;;;;;;11.50;10.80;;;8.50;86.40;;;;;;4928975;29;20272;-92
2023/04/13 08:28:31;;;;;;;12.37;11.33;;;8.40;86.30;;;;;;4925356;29;20165;-92
2023/04/13 08:30:57;;;;;;;11.73;10.97;;;8.30;85.50;;;;;;4923182;29;20184;-92
2023/04/13 08:33:23;;;;;;;12.13;11.27;;;8.30;85.00;;;;;;4923563;29;20196;-92
2023/04/13 08:35:48;;;;;;;11.43;10.83;;;8.30;85.00;;;;;;4924088;29;20291;-91
2023/04/13 08:38:14;;;;;;;11.23;10.53;;;8.40;85.70;;;;;;4925295;29;20188;-92
2023/04/13 08:40:40;;;;;;;11.87;10.90;;;8.40;85.70;;;;;;4928012;29;20215;-90
2023/04/13 08:46:34;;;;;;;11.23;10.33;;;8.30;84.90;;;;;;4938751;29;20200;-92
2023/04/13 08:49:26;;;;;;;11.57;10.67;;;8.40;85.50;;;;;;4875000;29;20190;-92
2023/04/13 08:51:54;;;;;;;10.90;10.17;;;8.30;84.60;;;;;;4932937;29;20161;-91
2023/04/13 08:54:24;;;;;;;10.10;9.33;;;8.40;84.50;;;;;;4936081;29;20169;-92
2023/04/13 08:56:50;;;;;;;10.63;9.83;;;8.40;85.20;;;;;;4920113;29;20188;-91
2023/04/13 08:59:17;;;;;;;10.63;9.93;;;8.30;84.50;;;;;;4920595;29;20184;-92
2023/04/13 09:01:47;;;;;;;11.13;10.23;;;8.30;84.80;;;;;;4921825;29;20176;-90
2023/04/13 09:04:17;;;;;;;11.50;10.70;;;8.30;85.40;;;;;;4915531;29;20194;-89
2023/04/13 09:06:46;;;;;;;10.50;9.80;;;8.40;84.60;;;;;;4916664;29;20188;-90
2023/04/13 09:09:13;;;;;;;12.50;11.60;;;8.70;84.80;;;;;;4915518;29;20267;-89
2023/04/13 09:11:40;;;;;;;10.00;9.40;;;8.80;84.20;;;;;;4915636;29;20223;-90
2023/04/13 09:14:07;;;;;;;11.80;11.03;;;8.90;83.70;;;;;;4918048;29;20181;-91
2023/04/13 09:16:40;;;;;;;12.50;11.60;;;8.90;83.50;;;;;;4921488;29;20312;-92
2023/04/13 09:19:11;;;;;;;11.23;10.53;;;8.80;82.30;;;;;;4921898;29;20185;-92
2023/04/13 09:21:43;;;;;;;12.07;11.27;;;8.90;83.80;;;;;;4920561;29;20207;-90
2023/04/13 09:24:09;;;;;;;11.90;11.00;;;8.90;82.80;;;;;;4924630;29;20238;-91
2023/04/13 09:27:01;;;;;;;11.83;10.83;;;9.00;82.80;;;;;;4924646;29;20173;-92
2023/04/13 09:29:27;;;;;;;12.47;11.67;;;9.30;82.80;;;;;;4919549;29;20181;-91
2023/04/13 09:31:52;;;;;;;11.67;10.97;;;9.70;80.90;;;;;;4921040;29;20655;-91
2023/04/13 09:34:28;;;;;;;13.10;12.03;;;9.90;81.20;;;;;;4919828;29;20645;-91
2023/04/13 09:36:54;;;;;;;12.63;11.73;;;9.90;79.80;;;;;;4920428;29;20427;-91
2023/04/13 09:39:26;;;;;;;12.77;11.47;;;10.00;80.50;;;;;;4919713;29;20216;-91
2023/04/13 09:41:53;;;;;;;12.90;11.93;;;10.20;79.40;;;;;;4918802;29;20173;-92
2023/04/13 09:44:21;;;;;;;11.60;11.00;;;10.10;78.10;;;;;;4919224;29;20232;-92
2023/04/13 09:47:07;;;;;;;12.47;11.77;;;10.10;79.70;;;;;;4918642;29;20189;-91
2023/04/13 09:49:40;;;;;;;11.83;11.13;;;10.10;78.10;;;;;;4918734;29;20173;-91
2023/04/13 09:52:18;;;;;;;12.60;11.80;;;10.00;77.40;;;;;;4923973;29;20204;-90
2023/04/13 09:55:00;;;;;;;13.33;12.33;;;10.30;78.00;;;;;;4919398;29;20181;-91
2023/04/13 09:57:27;;;;;;;13.23;12.30;;;10.30;77.50;;;;;;4919518;29;20224;-91
2023/04/13 09:59:56;;;;;;;13.47;12.67;;;9.90;77.40;;;;;;4918516;29;20184;-92
2023/04/13 10:02:22;;;;;;;12.20;11.40;;;9.60;75.60;;;;;;4925647;29;20235;-92
2023/04/13 10:04:48;;;;;;;13.07;12.07;;;9.50;78.00;;;;;;4925773;29;20676;-91
2023/04/13 10:07:13;;;;;;;11.57;10.77;;;9.40;77.80;;;;;;4921657;29;20271;-91
2023/04/13 10:09:43;;;;;;;11.90;10.90;;;9.30;78.40;;;;;;4920609;29;20268;-91
2023/04/13 10:12:12;;;;;;;12.47;11.10;;;9.40;79.70;;;;;;4925565;29;20636;-91
2023/04/13 10:14:42;;;;;;;13.00;12.00;;;9.50;80.50;;;;;;4920336;29;20248;-91
2023/04/13 10:17:25;;;;;;;11.43;10.73;;;9.70;79.70;;;;;;4920088;29;20181;-91
2023/04/13 10:19:53;;;;;;;12.80;11.80;;;9.80;78.90;;;;;;4918714;29;20173;-91
2023/04/13 10:22:21;;;;;;;11.40;10.50;;;9.90;78.30;;;;;;4922815;29;20598;-89
2023/04/13 10:24:47;;;;;;;13.07;11.83;;;10.30;79.10;;;;;;4919288;29;20172;-88
2023/04/13 10:27:15;;;;;;;13.87;12.83;;;10.70;76.80;;;;;;4917867;29;20245;-88
2023/04/13 10:29:41;;;;;;;12.87;11.90;;;10.40;76.10;;;;;;4919076;29;20547;-89
2023/04/13 10:32:07;;;;;;;12.83;11.93;;;10.10;76.60;;;;;;4918956;29;20239;-89
2023/04/13 10:34:35;;;;;;;12.30;11.30;;;9.90;77.00;;;;;;4918780;29;20212;-88
2023/04/13 10:37:05;;;;;;;12.83;11.93;;;10.10;75.50;;;;;;4919021;29;20176;-89
2023/04/13 10:39:33;;;;;;;12.33;11.33;;;10.80;74.60;;;;;;4919006;29;20245;-89
2023/04/13 10:42:05;;;;;;;13.60;12.30;;;11.00;74.80;;;;;;4918663;29;20177;-89
2023/04/13 10:44:43;;;;;;;12.50;11.67;;;11.10;74.80;;;;;;4919441;29;20255;-89
2023/04/13 10:47:10;;;;;;;15.47;14.23;;;11.30;74.40;;;;;;4918761;29;20259;-89
2023/04/13 10:49:36;;;;;;;14.37;12.90;;;11.10;72.40;;;;;;4918811;29;20188;-89
2023/04/13 10:52:02;;;;;;;14.53;13.63;;;11.00;71.80;;;;;;4918519;29;20663;-88
2023/04/13 10:54:29;;;;;;;16.50;15.30;;;11.30;69.70;;;;;;4918281;29;20181;-88
2023/04/13 10:57:02;;;;;;;12.90;12.10;;;11.30;69.50;;;;;;4918409;29;20223;-89
2023/04/13 10:59:52;;;;;;;15.67;14.37;;;11.80;73.30;;;;;;4918340;29;20161;-89
2023/04/13 11:02:19;;;;;;;12.70;11.90;;;11.20;69.70;;;;;;4918452;29;20781;-89
2023/04/13 11:04:46;;;;;;;14.40;13.07;;;11.20;72.80;;;;;;4918557;29;20188;-89
2023/04/13 11:07:14;;;;;;;13.83;12.57;;;11.10;72.60;;;;;;4918172;29;20177;-89
2023/04/13 11:09:41;;;;;;;13.70;12.70;;;11.00;72.10;;;;;;4918226;29;20173;-89
2023/04/13 11:12:07;;;;;;;15.20;14.20;;;11.00;71.80;;;;;;4918203;29;20197;-89
2023/04/13 11:14:38;;;;;;;12.83;12.03;;;10.80;70.50;;;;;;4918063;29;20227;-88
2023/04/13 11:17:06;;;;;;;14.40;13.10;;;10.90;72.20;;;;;;4918137;29;20260;-89
2023/04/13 11:19:31;;;;;;;14.10;13.17;;;11.40;71.00;;;;;;4916717;29;20220;-89
2023/04/13 11:21:58;;;;;;;14.20;13.20;;;11.30;68.90;;;;;;4917940;29;20264;-88
2023/04/13 11:24:32;;;;;;;15.00;14.00;;;11.50;68.80;;;;;;4916739;29;20251;-89
2023/04/13 11:27:02;;;;;;;14.13;12.93;;;11.20;68.50;;;;;;4917459;29;20591;-88
2023/04/13 11:29:28;;;;;;;12.53;11.53;;;11.10;71.80;;;;;;4918106;29;20248;-89
2023/04/13 11:31:54;;;;;;;12.20;11.50;;;11.20;73.40;;;;;;4917753;29;20264;-88
2023/04/13 11:34:25;;;;;;;13.27;11.97;;;10.80;73.80;;;;;;4918026;29;20239;-89
2023/04/13 11:36:59;;;;;;;11.57;10.77;;;10.50;75.50;;;;;;4917582;29;20264;-89
2023/04/13 11:39:27;;;;;;;11.80;11.00;;;10.40;75.10;;;;;;4917536;29;20199;-88
2023/04/13 11:41:52;;;;;;;12.00;11.20;;;10.40;76.10;;;;;;4916464;29;20208;-89
2023/04/13 11:44:18;;;;;;;13.03;11.87;;;10.50;76.30;;;;;;4917883;29;20181;-88
2023/04/13 11:46:43;;;;;;;13.43;12.63;;;10.40;76.70;;;;;;4917487;29;20675;-89
2023/04/13 11:49:10;;;;;;;13.00;12.10;;;10.80;76.30;;;;;;4917575;29;20546;-89
2023/04/13 11:51:36;;;;;;;13.83;12.90;;;11.10;75.60;;;;;;4917552;29;20224;-88
2023/04/13 11:54:02;;;;;;;11.50;10.77;;;10.80;74.60;;;;;;4917325;29;20550;-88
2023/04/13 11:56:29;;;;;;;12.43;11.57;;;10.70;76.00;;;;;;4917353;29;20204;-88
2023/04/13 11:58:55;;;;;;;12.67;11.80;;;10.60;76.00;;;;;;4917919;29;20176;-86
2023/04/13 12:01:22;;;;;;;12.67;11.83;;;10.60;76.40;;;;;;4917437;29;20180;-85
2023/04/13 12:03:47;;;;;;;11.90;10.83;;;10.70;76.20;;;;;;4916165;29;20633;-85
2023/04/13 12:06:15;;;;;;;12.63;11.80;;;10.90;76.00;;;;;;4916300;29;20275;-84
2023/04/13 12:08:41;;;;;;;12.70;11.80;;;11.30;74.80;;;;;;4916507;29;20173;-85
2023/04/13 12:11:08;;;;;;;14.60;13.30;;;11.70;74.20;;;;;;4917468;29;20169;-84
2023/04/13 12:13:44;;;;;;;13.57;12.67;;;11.90;72.00;;;;;;4916253;29;20705;-85
2023/04/13 12:16:11;;;;;;;13.90;13.00;;;11.90;72.00;;;;;;4917527;29;20263;-84
2023/04/13 12:18:42;;;;;;;13.73;12.83;;;11.90;71.50;;;;;;4915959;29;20177;-85
2023/04/13 12:21:13;;;;;;;13.23;11.90;;;12.20;69.60;;;;;;4916018;29;20606;-84
2023/04/13 12:23:38;;;;;;;12.67;11.87;;;11.80;72.40;;;;;;4916829;29;20287;-84
2023/04/13 12:26:04;;;;;;;12.97;12.03;;;12.00;70.50;;;;;;4915962;29;20177;-85
2023/04/13 12:28:37;;;;;;;14.67;13.47;;;11.80;72.60;;;;;;4915924;29;20172;-84
2023/04/13 12:31:08;;;;;;;13.83;12.80;;;11.80;69.70;;;;;;4916062;29;20199;-84
2023/04/13 12:33:34;;;;;;;14.10;13.00;;;11.70;69.60;;;;;;4917260;29;20299;-85
2023/04/13 12:36:00;;;;;;;13.80;12.60;;;11.50;69.80;;;;;;4916220;29;20213;-84
2023/04/13 12:38:26;;;;;;;13.77;12.73;;;11.40;69.50;;;;;;4915864;29;20177;-84
2023/04/13 12:41:01;;;;;;;13.63;12.70;;;11.90;69.70;;;;;;4915630;29;20184;-84